Hlavní strana
METAR-TAF:

METAR-TAF

Letiště :

Malindi, Keňa

zeměpisná šířka: 03-14S, zeměpisná délka: 040-06E, výška: 20 m

Aktuální stav počasí

Zpráva byla vytvořena před 3 hodinami a 54 minutami, v 16:00 UTC
Bezvětří
Teplota 25°C
Vlhkost vzduchu 89%
Tlak 1013 hPa
Viditelnost 10 km a více
Polojasno ve výšce 2300 ft, Vertikální cumulus.

METAR: HKML 261600Z 00000KT 9999 SCT023TCU 25/23 Q1013

Čas: 22:54 (19:54 UTC)


TAF: chybějící

Stav a předpovědi počasí z více než 4 000 letišť (zprávy METAR a TAF).

Červené a žluté tečky na mapě představují dostupné meteorologické stanice.

Když kurzor umístíte na tečku, zobrazí se název stanice.

Pak kliknutím zobrazíte stav a předpověď počasí.

Chcete-li změnit mapu, kliknutím na zelené tlačítko se znaménkem +mapu přiblížíte, kliknutím na zelené tlačítko se znaménkem – mapu oddálíte a kliknutím na zelené šipky přejdete na sousední mapy.


METAR-TAF: